sensor_id;sensor_type;location;lat;lon;timestamp;pressure;altitude;pressure_sealevel;temperature;humidity
44751;BME280;30477;48.224;11.470;2022-12-07T00:01:28;96004.22;;;2.96;78.77
44751;BME280;30477;48.224;11.470;2022-12-07T00:03:56;95995.28;;;2.89;78.27
44751;BME280;30477;48.224;11.470;2022-12-07T00:06:36;96002.31;;;2.85;78.17
44751;BME280;30477;48.224;11.470;2022-12-07T00:09:03;95999.47;;;2.90;78.33
44751;BME280;30477;48.224;11.470;2022-12-07T00:11:28;95998.66;;;2.89;78.23
44751;BME280;30477;48.224;11.470;2022-12-07T00:13:55;95994.84;;;2.96;78.29
44751;BME280;30477;48.224;11.470;2022-12-07T00:16:24;95996.84;;;2.91;78.05
44751;BME280;30477;48.224;11.470;2022-12-07T00:18:50;95998.56;;;2.91;78.00
44751;BME280;30477;48.224;11.470;2022-12-07T00:21:21;95992.44;;;2.93;78.26
44751;BME280;30477;48.224;11.470;2022-12-07T00:23:48;95985.97;;;2.88;77.88
44751;BME280;30477;48.224;11.470;2022-12-07T00:26:25;95984.09;;;2.77;78.01
44751;BME280;30477;48.224;11.470;2022-12-07T00:28:56;95989.03;;;2.66;77.90
44751;BME280;30477;48.224;11.470;2022-12-07T00:31:23;95992.69;;;2.61;78.06
44751;BME280;30477;48.224;11.470;2022-12-07T00:33:49;95986.94;;;2.58;78.34
44751;BME280;30477;48.224;11.470;2022-12-07T00:36:17;95986.69;;;2.62;78.41
44751;BME280;30477;48.224;11.470;2022-12-07T00:38:43;95982.91;;;2.68;78.44
44751;BME280;30477;48.224;11.470;2022-12-07T00:43:34;95984.00;;;2.64;78.47
44751;BME280;30477;48.224;11.470;2022-12-07T00:45:59;95988.59;;;2.73;78.81
44751;BME280;30477;48.224;11.470;2022-12-07T00:48:25;95985.81;;;2.76;78.66
44751;BME280;30477;48.224;11.470;2022-12-07T00:50:51;95982.75;;;2.71;78.47
44751;BME280;30477;48.224;11.470;2022-12-07T00:53:16;95987.13;;;2.69;78.49
44751;BME280;30477;48.224;11.470;2022-12-07T00:55:42;95982.38;;;2.63;78.39
44751;BME280;30477;48.224;11.470;2022-12-07T00:58:08;95988.75;;;2.70;78.85
44751;BME280;30477;48.224;11.470;2022-12-07T01:00:35;95986.56;;;2.78;78.73
44751;BME280;30477;48.224;11.470;2022-12-07T01:03:01;95986.19;;;2.70;78.63
44751;BME280;30477;48.224;11.470;2022-12-07T01:05:26;95974.88;;;2.74;78.80
44751;BME280;30477;48.224;11.470;2022-12-07T01:07:52;95979.81;;;2.77;78.55
44751;BME280;30477;48.224;11.470;2022-12-07T01:10:17;95983.63;;;2.70;78.48
44751;BME280;30477;48.224;11.470;2022-12-07T01:12:42;95988.03;;;2.68;78.52
44751;BME280;30477;48.224;11.470;2022-12-07T01:15:08;95985.84;;;2.62;78.56
44751;BME280;30477;48.224;11.470;2022-12-07T01:17:34;95991.31;;;2.56;78.47
44751;BME280;30477;48.224;11.470;2022-12-07T01:20:00;95990.22;;;2.60;78.83
44751;BME280;30477;48.224;11.470;2022-12-07T01:22:25;95989.84;;;2.66;78.95
44751;BME280;30477;48.224;11.470;2022-12-07T01:24:51;95987.13;;;2.69;78.74
44751;BME280;30477;48.224;11.470;2022-12-07T01:27:16;95982.75;;;2.71;78.70
44751;BME280;30477;48.224;11.470;2022-12-07T01:29:42;95997.50;;;2.66;78.60
44751;BME280;30477;48.224;11.470;2022-12-07T01:32:07;95984.22;;;2.61;78.66
44751;BME280;30477;48.224;11.470;2022-12-07T01:34:32;95983.19;;;2.63;79.02
44751;BME280;30477;48.224;11.470;2022-12-07T01:36:58;95983.63;;;2.70;78.94
44751;BME280;30477;48.224;11.470;2022-12-07T01:39:23;95984.19;;;2.75;79.01
44751;BME280;30477;48.224;11.470;2022-12-07T01:41:49;95982.88;;;2.82;79.11
44751;BME280;30477;48.224;11.470;2022-12-07T01:44:26;95985.81;;;2.91;78.96
44751;BME280;30477;48.224;11.470;2022-12-07T01:47:09;95978.84;;;2.93;78.88
44751;BME280;30477;48.224;11.470;2022-12-07T01:49:41;95982.94;;;2.95;78.75
44751;BME280;30477;48.224;11.470;2022-12-07T01:52:18;95986.63;;;2.91;78.59
44751;BME280;30477;48.224;11.470;2022-12-07T01:54:46;95983.69;;;2.97;78.61
44751;BME280;30477;48.224;11.470;2022-12-07T01:57:14;95976.88;;;2.83;78.21
44751;BME280;30477;48.224;11.470;2022-12-07T01:59:41;95967.75;;;2.79;78.51
44751;BME280;30477;48.224;11.470;2022-12-07T02:02:19;95979.81;;;2.77;78.44
44751;BME280;30477;48.224;11.470;2022-12-07T02:04:46;95975.97;;;2.70;78.40
44751;BME280;30477;48.224;11.470;2022-12-07T02:07:12;95977.06;;;2.66;78.27
44751;BME280;30477;48.224;11.470;2022-12-07T02:09:37;95973.41;;;2.70;78.84
44751;BME280;30477;48.224;11.470;2022-12-07T02:12:03;95967.03;;;2.77;78.57
44751;BME280;30477;48.224;11.470;2022-12-07T02:14:29;95963.41;;;2.67;78.69
44751;BME280;30477;48.224;11.470;2022-12-07T02:16:59;95963.91;;;2.72;78.75
44751;BME280;30477;48.224;11.470;2022-12-07T02:20:03;95966.91;;;2.79;78.91
44751;BME280;30477;48.224;11.470;2022-12-07T02:28:12;95959.88;;;2.82;78.45
44751;BME280;30477;48.224;11.470;2022-12-07T02:30:47;95958.06;;;2.84;78.51
44751;BME280;30477;48.224;11.470;2022-12-07T02:33:17;95962.16;;;2.87;78.56
44751;BME280;30477;48.224;11.470;2022-12-07T02:35:55;95958.41;;;2.93;78.38
44751;BME280;30477;48.224;11.470;2022-12-07T02:38:29;95954.78;;;2.82;78.05
44751;BME280;30477;48.224;11.470;2022-12-07T02:41:17;95957.34;;;2.82;78.32
44751;BME280;30477;48.224;11.470;2022-12-07T02:43:48;95958.16;;;2.83;78.05
44751;BME280;30477;48.224;11.470;2022-12-07T02:46:21;95957.72;;;2.76;78.17
44751;BME280;30477;48.224;11.470;2022-12-07T02:48:49;95955.78;;;2.80;78.21
44751;BME280;30477;48.224;11.470;2022-12-07T02:51:17;95960.34;;;2.75;78.09
44751;BME280;30477;48.224;11.470;2022-12-07T02:53:43;95948.13;;;2.80;78.43
44751;BME280;30477;48.224;11.470;2022-12-07T02:58:52;95954.44;;;2.74;77.96
44751;BME280;30477;48.224;11.470;2022-12-07T03:01:34;95948.16;;;2.51;77.97
44751;BME280;30477;48.224;11.470;2022-12-07T03:04:19;95955.75;;;2.53;78.52
44751;BME280;30477;48.224;11.470;2022-12-07T03:06:57;95946.44;;;2.52;78.34
44751;BME280;30477;48.224;11.470;2022-12-07T03:09:39;95953.56;;;2.61;78.63
44751;BME280;30477;48.224;11.470;2022-12-07T03:12:09;95951.72;;;2.63;78.42
44751;BME280;30477;48.224;11.470;2022-12-07T03:14:41;95955.03;;;2.51;78.41
44751;BME280;30477;48.224;11.470;2022-12-07T03:17:23;95953.94;;;2.55;78.73
44751;BME280;30477;48.224;11.470;2022-12-07T03:19:51;95952.09;;;2.57;78.56
44751;BME280;30477;48.224;11.470;2022-12-07T03:22:19;95949.91;;;2.65;78.71
44751;BME280;30477;48.224;11.470;2022-12-07T03:24:50;95957.28;;;2.70;78.72
44751;BME280;30477;48.224;11.470;2022-12-07T03:27:26;95953.72;;;2.58;78.48
44751;BME280;30477;48.224;11.470;2022-12-07T03:32:41;95951.91;;;2.60;78.69
44751;BME280;30477;48.224;11.470;2022-12-07T03:35:22;95950.66;;;2.53;78.47
44751;BME280;30477;48.224;11.470;2022-12-07T03:38:05;95955.56;;;2.56;78.71
44751;BME280;30477;48.224;11.470;2022-12-07T03:40:40;95947.72;;;2.44;78.61
44751;BME280;30477;48.224;11.470;2022-12-07T03:43:10;95949.19;;;2.49;78.92
44751;BME280;30477;48.224;11.470;2022-12-07T03:45:41;95953.72;;;2.58;78.73
44751;BME280;30477;48.224;11.470;2022-12-07T03:50:42;95948.38;;;2.48;78.82
44751;BME280;30477;48.224;11.470;2022-12-07T03:55:42;95944.88;;;2.49;78.88
44751;BME280;30477;48.224;11.470;2022-12-07T03:58:14;95945.81;;;2.48;78.98
44751;BME280;30477;48.224;11.470;2022-12-07T04:00:41;95944.81;;;2.51;79.17
44751;BME280;30477;48.224;11.470;2022-12-07T04:03:07;95940.59;;;2.50;79.05
44751;BME280;30477;48.224;11.470;2022-12-07T04:05:33;95943.16;;;2.50;79.05
44751;BME280;30477;48.224;11.470;2022-12-07T04:07:58;95935.59;;;2.48;78.96
44751;BME280;30477;48.224;11.470;2022-12-07T04:10:24;95937.94;;;2.51;79.35
44751;BME280;30477;48.224;11.470;2022-12-07T04:12:49;95936.69;;;2.44;79.13
44751;BME280;30477;48.224;11.470;2022-12-07T04:15:14;95938.69;;;2.39;79.34
44751;BME280;30477;48.224;11.470;2022-12-07T04:17:40;95934.97;;;2.44;79.48
44751;BME280;30477;48.224;11.470;2022-12-07T04:20:06;95944.22;;;2.60;79.69
44751;BME280;30477;48.224;11.470;2022-12-07T04:22:32;95942.25;;;2.51;79.56
44751;BME280;30477;48.224;11.470;2022-12-07T04:24:57;95945.91;;;2.47;79.53
44751;BME280;30477;48.224;11.470;2022-12-07T04:27:23;95946.19;;;2.42;79.67
44751;BME280;30477;48.224;11.470;2022-12-07T04:29:48;95943.81;;;2.39;79.75
44751;BME280;30477;48.224;11.470;2022-12-07T04:32:13;95936.34;;;2.36;79.90
44751;BME280;30477;48.224;11.470;2022-12-07T04:34:39;95941.72;;;2.31;79.81
44751;BME280;30477;48.224;11.470;2022-12-07T04:37:04;95931.69;;;2.28;80.15
44751;BME280;30477;48.224;11.470;2022-12-07T04:39:31;95937.34;;;2.33;80.33
44751;BME280;30477;48.224;11.470;2022-12-07T04:41:58;95935.78;;;2.31;80.29
44751;BME280;30477;48.224;11.470;2022-12-07T04:44:24;95938.44;;;2.29;80.42
44751;BME280;30477;48.224;11.470;2022-12-07T04:46:51;95938.81;;;2.23;80.46
44751;BME280;30477;48.224;11.470;2022-12-07T04:49:17;95931.88;;;2.25;80.81
44751;BME280;30477;48.224;11.470;2022-12-07T04:51:43;95942.91;;;2.26;80.69
44751;BME280;30477;48.224;11.470;2022-12-07T04:54:08;95937.59;;;2.29;80.65
44751;BME280;30477;48.224;11.470;2022-12-07T04:56:34;95937.88;;;2.24;80.79
44751;BME280;30477;48.224;11.470;2022-12-07T04:59:00;95937.00;;;2.25;80.95
44751;BME280;30477;48.224;11.470;2022-12-07T05:01:26;95941.97;;;2.27;81.19
44751;BME280;30477;48.224;11.470;2022-12-07T05:03:51;95939.19;;;2.31;81.05
44751;BME280;30477;48.224;11.470;2022-12-07T05:06:17;95939.72;;;2.36;81.30
44751;BME280;30477;48.224;11.470;2022-12-07T05:08:43;95940.06;;;2.30;81.04
44751;BME280;30477;48.224;11.470;2022-12-07T05:11:09;95945.75;;;2.21;80.87
44751;BME280;30477;48.224;11.470;2022-12-07T05:13:35;95946.09;;;2.15;81.22
44751;BME280;30477;48.224;11.470;2022-12-07T05:16:00;95952.09;;;2.14;81.10
44751;BME280;30477;48.224;11.470;2022-12-07T05:18:26;95944.28;;;2.17;81.35
44751;BME280;30477;48.224;11.470;2022-12-07T05:20:52;95947.13;;;2.12;81.21
44751;BME280;30477;48.224;11.470;2022-12-07T05:23:17;95946.66;;;2.20;81.50
44751;BME280;30477;48.224;11.470;2022-12-07T05:25:43;95942.25;;;2.22;81.58
44751;BME280;30477;48.224;11.470;2022-12-07T05:28:09;95942.72;;;2.29;81.46
44751;BME280;30477;48.224;11.470;2022-12-07T05:30:34;95937.16;;;2.36;81.24
44751;BME280;30477;48.224;11.470;2022-12-07T05:32:59;95945.09;;;2.46;81.66
44751;BME280;30477;48.224;11.470;2022-12-07T05:35:25;95942.09;;;2.39;81.46
44751;BME280;30477;48.224;11.470;2022-12-07T05:37:50;95939.88;;;2.48;81.12
44751;BME280;30477;48.224;11.470;2022-12-07T05:40:16;95944.06;;;2.49;81.04
44751;BME280;30477;48.224;11.470;2022-12-07T05:42:42;95943.63;;;2.42;80.80
44751;BME280;30477;48.224;11.470;2022-12-07T05:45:08;95937.31;;;2.48;80.70
44751;BME280;30477;48.224;11.470;2022-12-07T05:47:34;95944.44;;;2.42;80.90
44751;BME280;30477;48.224;11.470;2022-12-07T05:50:00;95937.31;;;2.48;80.82
44751;BME280;30477;48.224;11.470;2022-12-07T05:52:25;95938.59;;;2.55;80.81
44751;BME280;30477;48.224;11.470;2022-12-07T05:54:51;95939.69;;;2.51;80.30
44751;BME280;30477;48.224;11.470;2022-12-07T05:57:16;95939.41;;;2.41;80.31
44751;BME280;30477;48.224;11.470;2022-12-07T05:59:41;95939.44;;;2.27;80.21
44751;BME280;30477;48.224;11.470;2022-12-07T06:02:09;95946.84;;;2.31;80.75
44751;BME280;30477;48.224;11.470;2022-12-07T06:04:45;95945.91;;;2.47;80.74
44751;BME280;30477;48.224;11.470;2022-12-07T06:07:13;95936.31;;;2.50;80.55
44751;BME280;30477;48.224;11.470;2022-12-07T06:09:38;95942.25;;;2.51;80.26
44751;BME280;30477;48.224;11.470;2022-12-07T06:12:05;95942.63;;;2.44;80.58
44751;BME280;30477;48.224;11.470;2022-12-07T06:14:49;95943.16;;;2.50;80.18
44751;BME280;30477;48.224;11.470;2022-12-07T06:17:14;95946.47;;;2.37;80.24
44751;BME280;30477;48.224;11.470;2022-12-07T06:19:40;95950.50;;;2.27;80.38
44751;BME280;30477;48.224;11.470;2022-12-07T06:22:06;95951.94;;;2.31;80.57
44751;BME280;30477;48.224;11.470;2022-12-07T06:24:32;95949.94;;;2.36;80.42
44751;BME280;30477;48.224;11.470;2022-12-07T06:26:58;95952.75;;;2.32;80.49
44751;BME280;30477;48.224;11.470;2022-12-07T06:29:23;95952.19;;;2.41;80.59
44751;BME280;30477;48.224;11.470;2022-12-07T06:31:48;95958.69;;;2.32;80.49
44751;BME280;30477;48.224;11.470;2022-12-07T06:34:16;95956.84;;;2.34;80.58
44751;BME280;30477;48.224;11.470;2022-12-07T06:36:42;95965.09;;;2.39;80.45
44751;BME280;30477;48.224;11.470;2022-12-07T06:39:08;95955.03;;;2.36;80.40
44751;BME280;30477;48.224;11.470;2022-12-07T06:41:38;95965.41;;;2.48;80.57
44751;BME280;30477;48.224;11.470;2022-12-07T06:44:04;95966.88;;;2.52;80.51
44751;BME280;30477;48.224;11.470;2022-12-07T06:46:30;95960.66;;;2.56;80.42
44751;BME280;30477;48.224;11.470;2022-12-07T06:48:56;95957.56;;;2.51;80.07
44751;BME280;30477;48.224;11.470;2022-12-07T06:51:21;95968.44;;;2.54;80.10
44751;BME280;30477;48.224;11.470;2022-12-07T06:53:47;95963.41;;;2.53;80.08
44751;BME280;30477;48.224;11.470;2022-12-07T06:56:12;95968.91;;;2.47;79.79
44751;BME280;30477;48.224;11.470;2022-12-07T06:58:39;95969.41;;;2.52;79.87
44751;BME280;30477;48.224;11.470;2022-12-07T07:01:09;95962.84;;;2.62;79.99
44751;BME280;30477;48.224;11.470;2022-12-07T07:03:35;95972.63;;;2.55;79.59
44751;BME280;30477;48.224;11.470;2022-12-07T07:06:00;95967.59;;;2.54;79.51
44751;BME280;30477;48.224;11.470;2022-12-07T07:08:25;95959.41;;;2.49;79.54
44751;BME280;30477;48.224;11.470;2022-12-07T07:10:51;95967.97;;;2.48;79.64
44751;BME280;30477;48.224;11.470;2022-12-07T07:13:16;95962.97;;;2.46;79.32
44751;BME280;30477;48.224;11.470;2022-12-07T07:15:41;95963.22;;;2.41;79.56
44751;BME280;30477;48.224;11.470;2022-12-07T07:18:07;95963.22;;;2.41;79.10
44751;BME280;30477;48.224;11.470;2022-12-07T07:20:32;95962.84;;;2.48;79.53
44751;BME280;30477;48.224;11.470;2022-12-07T07:22:58;95959.75;;;2.57;79.30
44751;BME280;30477;48.224;11.470;2022-12-07T07:25:23;95964.97;;;2.55;79.13
44751;BME280;30477;48.224;11.470;2022-12-07T07:27:48;95967.78;;;2.51;79.12
44751;BME280;30477;48.224;11.470;2022-12-07T07:30:14;95965.97;;;2.53;79.04
44751;BME280;30477;48.224;11.470;2022-12-07T07:32:39;95972.09;;;2.50;78.96
44751;BME280;30477;48.224;11.470;2022-12-07T07:35:05;95964.69;;;2.46;78.86
44751;BME280;30477;48.224;11.470;2022-12-07T07:37:30;95964.88;;;2.42;78.89
44751;BME280;30477;48.224;11.470;2022-12-07T07:39:56;95974.44;;;2.39;78.41
44751;BME280;30477;48.224;11.470;2022-12-07T07:42:21;95969.47;;;2.37;78.92
44751;BME280;30477;48.224;11.470;2022-12-07T07:44:47;95962.41;;;2.41;78.98
44751;BME280;30477;48.224;11.470;2022-12-07T07:47:12;95967.78;;;2.51;79.13
44751;BME280;30477;48.224;11.470;2022-12-07T07:49:37;95970.16;;;2.54;78.88
44751;BME280;30477;48.224;11.470;2022-12-07T07:52:03;95970.16;;;2.54;78.92
44751;BME280;30477;48.224;11.470;2022-12-07T07:54:28;95973.56;;;2.54;78.85
44751;BME280;30477;48.224;11.470;2022-12-07T07:56:53;95972.09;;;2.50;78.62
44751;BME280;30477;48.224;11.470;2022-12-07T07:59:19;95964.97;;;2.55;78.93
44751;BME280;30477;48.224;11.470;2022-12-07T08:01:44;95975.72;;;2.60;78.85
44751;BME280;30477;48.224;11.470;2022-12-07T08:04:09;95976.84;;;2.56;78.73
44751;BME280;30477;48.224;11.470;2022-12-07T08:06:35;95978.91;;;2.64;78.60
44751;BME280;30477;48.224;11.470;2022-12-07T08:09:00;95984.22;;;2.61;78.45
44751;BME280;30477;48.224;11.470;2022-12-07T08:11:26;95984.22;;;2.61;78.37
44751;BME280;30477;48.224;11.470;2022-12-07T08:13:51;95986.75;;;2.61;78.63
44751;BME280;30477;48.224;11.470;2022-12-07T08:16:17;95982.00;;;2.69;78.43
44751;BME280;30477;48.224;11.470;2022-12-07T08:18:42;95982.00;;;2.69;78.38
44751;BME280;30477;48.224;11.470;2022-12-07T08:21:11;95984.00;;;2.64;78.32
44751;BME280;30477;48.224;11.470;2022-12-07T08:23:37;95981.81;;;2.72;78.36
44751;BME280;30477;48.224;11.470;2022-12-07T08:26:12;95982.53;;;2.74;78.15
44751;BME280;30477;48.224;11.470;2022-12-07T08:28:38;95984.28;;;2.74;78.03
44751;BME280;30477;48.224;11.470;2022-12-07T08:31:11;95989.47;;;2.72;77.85
44751;BME280;30477;48.224;11.470;2022-12-07T08:33:37;95990.56;;;2.68;77.91
44751;BME280;30477;48.224;11.470;2022-12-07T08:36:06;95981.63;;;2.75;77.98
44751;BME280;30477;48.224;11.470;2022-12-07T08:38:37;95985.09;;;2.74;77.90
44751;BME280;30477;48.224;11.470;2022-12-07T08:41:02;95992.59;;;2.77;77.86
44751;BME280;30477;48.224;11.470;2022-12-07T08:43:28;95985.91;;;2.75;77.74
44751;BME280;30477;48.224;11.470;2022-12-07T08:46:06;95983.53;;;2.86;77.69
44751;BME280;30477;48.224;11.470;2022-12-07T08:48:36;95991.66;;;2.78;77.67
44751;BME280;30477;48.224;11.470;2022-12-07T08:51:03;95986.38;;;2.81;77.57
44751;BME280;30477;48.224;11.470;2022-12-07T08:53:29;95984.94;;;2.77;77.43
44751;BME280;30477;48.224;11.470;2022-12-07T08:55:56;95993.31;;;2.79;77.13
44751;BME280;30477;48.224;11.470;2022-12-07T08:58:22;95988.94;;;2.81;77.20
44751;BME280;30477;48.224;11.470;2022-12-07T09:00:48;95994.78;;;2.83;77.46
44751;BME280;30477;48.224;11.470;2022-12-07T09:03:13;95990.53;;;2.97;77.01
44751;BME280;30477;48.224;11.470;2022-12-07T09:05:38;96000.91;;;3.08;77.27
44751;BME280;30477;48.224;11.470;2022-12-07T09:08:04;95995.63;;;3.11;76.94
44751;BME280;30477;48.224;11.470;2022-12-07T09:10:30;95990.69;;;3.08;76.66
44751;BME280;30477;48.224;11.470;2022-12-07T09:12:55;95988.53;;;3.15;76.71
44751;BME280;30477;48.224;11.470;2022-12-07T09:15:21;95994.69;;;3.12;76.13
44751;BME280;30477;48.224;11.470;2022-12-07T09:17:46;95996.34;;;3.13;76.36
44751;BME280;30477;48.224;11.470;2022-12-07T09:20:11;95984.06;;;3.18;76.25
44751;BME280;30477;48.224;11.470;2022-12-07T09:22:37;95992.56;;;3.19;76.31
44751;BME280;30477;48.224;11.470;2022-12-07T09:25:03;95992.81;;;3.29;76.29
44751;BME280;30477;48.224;11.470;2022-12-07T09:27:29;95994.97;;;3.35;76.12
44751;BME280;30477;48.224;11.470;2022-12-07T09:29:55;95992.94;;;3.40;76.14
44751;BME280;30477;48.224;11.470;2022-12-07T09:32:20;95989.66;;;3.38;75.88
44751;BME280;30477;48.224;11.470;2022-12-07T09:34:45;95992.47;;;3.48;75.52
44751;BME280;30477;48.224;11.470;2022-12-07T09:37:11;95987.34;;;3.48;75.43
44751;BME280;30477;48.224;11.470;2022-12-07T09:39:40;95985.41;;;3.51;75.43
44751;BME280;30477;48.224;11.470;2022-12-07T09:42:05;95986.44;;;3.49;75.23
44751;BME280;30477;48.224;11.470;2022-12-07T09:44:32;95987.03;;;3.52;75.23
44751;BME280;30477;48.224;11.470;2022-12-07T09:46:58;95981.53;;;3.58;75.34
44751;BME280;30477;48.224;11.470;2022-12-07T09:49:25;95978.09;;;3.72;74.96
44751;BME280;30477;48.224;11.470;2022-12-07T09:52:17;95979.00;;;3.71;74.83
44751;BME280;30477;48.224;11.470;2022-12-07T09:54:46;95977.16;;;3.73;74.57
44751;BME280;30477;48.224;11.470;2022-12-07T09:57:12;95978.09;;;3.72;74.24
44751;BME280;30477;48.224;11.470;2022-12-07T09:59:38;95977.69;;;3.78;74.22
44751;BME280;30477;48.224;11.470;2022-12-07T10:02:40;95972.34;;;3.81;73.71
44751;BME280;30477;48.224;11.470;2022-12-07T10:05:12;95968.75;;;3.84;73.49
44751;BME280;30477;48.224;11.470;2022-12-07T10:07:38;95965.59;;;3.80;73.50
44751;BME280;30477;48.224;11.470;2022-12-07T10:10:14;95955.25;;;3.82;73.04
44751;BME280;30477;48.224;11.470;2022-12-07T10:12:54;95962.09;;;3.69;72.48
44751;BME280;30477;48.224;11.470;2022-12-07T10:15:20;95960.97;;;3.73;72.28
44751;BME280;30477;48.224;11.470;2022-12-07T10:17:50;95951.88;;;3.69;72.07
44751;BME280;30477;48.224;11.470;2022-12-07T10:20:24;95954.75;;;3.77;71.72
44751;BME280;30477;48.224;11.470;2022-12-07T10:23:05;95962.09;;;3.69;71.19
44751;BME280;30477;48.224;11.470;2022-12-07T10:25:34;95959.06;;;3.76;71.21
44751;BME280;30477;48.224;11.470;2022-12-07T10:28:12;95959.25;;;3.86;71.02
44751;BME280;30477;48.224;11.470;2022-12-07T10:30:59;95953.00;;;3.77;70.59
44751;BME280;30477;48.224;11.470;2022-12-07T10:33:31;95952.50;;;3.85;70.50
44751;BME280;30477;48.224;11.470;2022-12-07T10:35:57;95948.81;;;3.89;70.18
44751;BME280;30477;48.224;11.470;2022-12-07T10:38:24;95951.88;;;3.94;70.20
44751;BME280;30477;48.224;11.470;2022-12-07T10:41:03;95946.25;;;4.02;69.63
44751;BME280;30477;48.224;11.470;2022-12-07T10:43:28;95946.03;;;3.92;69.10
44751;BME280;30477;48.224;11.470;2022-12-07T10:46:20;95945.53;;;3.87;69.20
44751;BME280;30477;48.224;11.470;2022-12-07T10:52:30;95940.19;;;3.64;68.36
44751;BME280;30477;48.224;11.470;2022-12-07T11:00:41;95933.22;;;3.66;68.40
44751;BME280;30477;48.224;11.470;2022-12-07T11:03:36;95932.19;;;3.69;68.43
44751;BME280;30477;48.224;11.470;2022-12-07T11:09:52;95923.63;;;3.83;67.92
44751;BME280;30477;48.224;11.470;2022-12-07T11:15:01;95930.38;;;3.97;68.02
44751;BME280;30477;48.224;11.470;2022-12-07T11:17:42;95923.00;;;4.05;67.99
44751;BME280;30477;48.224;11.470;2022-12-07T11:24:15;95916.00;;;4.20;67.64
44751;BME280;30477;48.224;11.470;2022-12-07T11:37:01;95909.06;;;4.09;64.65
44751;BME280;30477;48.224;11.470;2022-12-07T11:39:41;95900.06;;;4.03;64.62
44751;BME280;30477;48.224;11.470;2022-12-07T11:42:30;95900.88;;;4.04;64.55
44751;BME280;30477;48.224;11.470;2022-12-07T11:45:03;95893.50;;;4.12;64.65
44751;BME280;30477;48.224;11.470;2022-12-07T11:47:40;95893.69;;;4.09;64.54
44751;BME280;30477;48.224;11.470;2022-12-07T11:58:02;95884.41;;;4.45;65.11
44751;BME280;30477;48.224;11.470;2022-12-07T12:00:28;95876.41;;;4.50;64.57
44751;BME280;30477;48.224;11.470;2022-12-07T12:03:05;95874.47;;;4.40;64.38
44751;BME280;30477;48.224;11.470;2022-12-07T12:05:35;95880.31;;;4.42;64.17
44751;BME280;30477;48.224;11.470;2022-12-07T12:08:16;95866.41;;;4.34;63.60
44751;BME280;30477;48.224;11.470;2022-12-07T12:10:55;95874.59;;;4.26;63.70
44751;BME280;30477;48.224;11.470;2022-12-07T12:21:30;95862.66;;;4.51;63.85
44751;BME280;30477;48.224;11.470;2022-12-07T12:24:10;95857.47;;;4.63;63.86
44751;BME280;30477;48.224;11.470;2022-12-07T12:26:38;95856.13;;;4.71;63.63
44751;BME280;30477;48.224;11.470;2022-12-07T12:29:21;95847.94;;;4.90;63.62
44751;BME280;30477;48.224;11.470;2022-12-07T12:32:05;95848.34;;;5.07;63.79
44751;BME280;30477;48.224;11.470;2022-12-07T12:45:22;95835.88;;;5.14;62.93
44751;BME280;30477;48.224;11.470;2022-12-07T12:50:37;95838.13;;;5.19;62.92
44751;BME280;30477;48.224;11.470;2022-12-07T12:53:23;95836.59;;;5.16;62.83
44751;BME280;30477;48.224;11.470;2022-12-07T13:00:43;95839.91;;;5.29;62.55
44751;BME280;30477;48.224;11.470;2022-12-07T13:03:22;95836.66;;;5.39;62.32
44751;BME280;30477;48.224;11.470;2022-12-07T13:08:43;95827.44;;;5.25;62.32
44751;BME280;30477;48.224;11.470;2022-12-07T13:11:25;95829.75;;;5.28;62.42
44751;BME280;30477;48.224;11.470;2022-12-07T13:16:57;95826.38;;;5.27;62.28
44751;BME280;30477;48.224;11.470;2022-12-07T13:25:42;95820.81;;;5.45;61.58
44751;BME280;30477;48.224;11.470;2022-12-07T13:28:14;95819.94;;;5.33;60.86
44751;BME280;30477;48.224;11.470;2022-12-07T13:30:46;95821.91;;;5.18;60.98
44751;BME280;30477;48.224;11.470;2022-12-07T13:33:12;95822.59;;;5.09;61.16
44751;BME280;30477;48.224;11.470;2022-12-07T13:35:39;95819.31;;;5.07;60.92
44751;BME280;30477;48.224;11.470;2022-12-07T13:38:16;95815.81;;;5.08;60.82
44751;BME280;30477;48.224;11.470;2022-12-07T13:41:20;95817.94;;;5.14;60.65
44751;BME280;30477;48.224;11.470;2022-12-07T13:43:50;95812.59;;;5.17;60.49
44751;BME280;30477;48.224;11.470;2022-12-07T13:46:19;95815.63;;;5.22;60.22
44751;BME280;30477;48.224;11.470;2022-12-07T13:48:47;95814.00;;;5.33;60.30
44751;BME280;30477;48.224;11.470;2022-12-07T13:51:25;95814.38;;;5.39;60.12
44751;BME280;30477;48.224;11.470;2022-12-07T13:53:59;95812.38;;;5.32;59.99
44751;BME280;30477;48.224;11.470;2022-12-07T13:56:32;95810.13;;;5.27;59.86
44751;BME280;30477;48.224;11.470;2022-12-07T13:58:59;95811.06;;;5.15;59.91
44751;BME280;30477;48.224;11.470;2022-12-07T14:01:24;95810.38;;;5.13;59.73
44751;BME280;30477;48.224;11.470;2022-12-07T14:03:50;95805.78;;;5.05;59.53
44751;BME280;30477;48.224;11.470;2022-12-07T14:06:28;95808.13;;;5.08;60.08
44751;BME280;30477;48.224;11.470;2022-12-07T14:09:17;95805.78;;;5.05;60.82
44751;BME280;30477;48.224;11.470;2022-12-07T14:11:44;95806.47;;;4.96;61.47
44751;BME280;30477;48.224;11.470;2022-12-07T14:14:19;95800.28;;;4.98;62.28
44751;BME280;30477;48.224;11.470;2022-12-07T14:17:08;95802.53;;;5.03;62.53
44751;BME280;30477;48.224;11.470;2022-12-07T14:19:44;95809.88;;;5.07;63.22
44751;BME280;30477;48.224;11.470;2022-12-07T14:22:20;95802.97;;;4.97;63.20
44751;BME280;30477;48.224;11.470;2022-12-07T14:24:46;95800.75;;;4.92;63.56
44751;BME280;30477;48.224;11.470;2022-12-07T14:27:20;95800.09;;;4.77;63.55
44751;BME280;30477;48.224;11.470;2022-12-07T14:29:46;95804.25;;;4.67;64.10
44751;BME280;30477;48.224;11.470;2022-12-07T14:32:24;95804.97;;;4.69;64.41
44751;BME280;30477;48.224;11.470;2022-12-07T14:37:26;95808.63;;;4.54;64.27
44751;BME280;30477;48.224;11.470;2022-12-07T14:39:52;95807.69;;;4.55;64.11
44751;BME280;30477;48.224;11.470;2022-12-07T14:42:18;95810.34;;;4.53;64.54
44751;BME280;30477;48.224;11.470;2022-12-07T14:44:44;95812.44;;;4.48;64.27
44751;BME280;30477;48.224;11.470;2022-12-07T14:47:10;95801.19;;;4.38;64.49
44751;BME280;30477;48.224;11.470;2022-12-07T14:49:35;95806.44;;;4.36;64.48